»·PEaware :: N290T KLBF-KGXY

N290T :: KLBF-KGXY

FLIGHT INFORMATION

Flight Status: Arrived
Operator: Privately registered:
United States
More flights under this callsign
Pilot: Andrew F. (4171)
Aircraft: BEECH AIRCRAFT BARON
(BE58)
More flights by this aircraft type
Origin: KLBF North Platte Regl-Bird
United States
Destination: KGXY Greeley-Weld Co
United States
More flights between these airports :: More routes between these airports
Route: +
File this flight plan on PilotEdge
Remarks:
Altitude:
(Current/Filed)
8,500ft
Speed:
(Current/Filed)
0kts
Departed: 02-Jul-19 02:15 PM
Arrived: 02-Jul-19 03:12 PM
Distance/Time
Traveled:
184nm/0:57
Distance/Time
To Go:
Arrived

Flight Plot

Page will automatically refresh every two minutes.

Flight plan parsing failed; only flown route is shown


Map Options




Map Legend


Flown Route
Filed Route
Departure Airport
Arrival Airport
Navaid (VOR, NDB)
Fix

Horizontal Profiles

Position Reports

Time Latitude Longitude Heading Altitude Ground
Speed
02-Jul-19 14:13 41.087076 -100.980083 256 8488ft 184kts
02-Jul-19 14:14 41.076437 -101.046203 256 8520ft 183kts
02-Jul-19 14:15 41.065758 -101.112405 256 8517ft 183kts
02-Jul-19 14:16 41.055069 -101.178381 255 8515ft 183kts
02-Jul-19 14:17 41.044367 -101.244173 255 8512ft 182kts
02-Jul-19 14:18 41.033629 -101.309870 255 8510ft 182kts
02-Jul-19 14:19 41.022938 -101.375092 255 8510ft 181kts
02-Jul-19 14:20 41.012213 -101.440295 255 8510ft 181kts
02-Jul-19 14:21 41.001470 -101.505382 255 8510ft 180kts
02-Jul-19 14:22 40.990735 -101.570209 256 8510ft 180kts
02-Jul-19 14:23 40.979981 -101.634912 256 8510ft 179kts
02-Jul-19 14:24 40.969152 -101.699778 255 8461ft 182kts
02-Jul-19 14:25 40.958714 -101.762090 255 8446ft 180kts
02-Jul-19 14:26 40.947878 -101.826544 255 8447ft 179kts
02-Jul-19 14:27 40.936999 -101.890998 255 8449ft 179kts
02-Jul-19 14:28 40.926138 -101.955130 255 8452ft 179kts
02-Jul-19 14:29 40.915237 -102.019287 255 8457ft 178kts
02-Jul-19 14:30 40.904314 -102.083332 255 8466ft 178kts
02-Jul-19 14:31 40.893505 -102.146471 255 8475ft 178kts
02-Jul-19 14:32 40.882491 -102.210553 255 8481ft 179kts
02-Jul-19 14:33 40.871441 -102.274652 255 8484ft 179kts
02-Jul-19 14:34 40.860298 -102.339065 255 8484ft 179kts
02-Jul-19 14:35 40.849166 -102.403184 255 8484ft 179kts
02-Jul-19 14:36 40.838023 -102.467125 255 8484ft 179kts
02-Jul-19 14:37 40.826808 -102.531253 255 8489ft 179kts
02-Jul-19 14:38 40.815564 -102.595368 255 8496ft 179kts
02-Jul-19 14:39 40.804246 -102.659614 255 8504ft 179kts
02-Jul-19 14:40 40.792891 -102.723906 255 8510ft 180kts
02-Jul-19 14:41 40.781484 -102.788265 255 8508ft 180kts
02-Jul-19 14:42 40.770028 -102.852658 255 8505ft 180kts
02-Jul-19 14:43 40.758530 -102.917045 255 8501ft 180kts
02-Jul-19 14:44 40.747014 -102.981366 254 8495ft 180kts
02-Jul-19 14:45 40.735409 -103.045930 254 8485ft 181kts
02-Jul-19 14:46 40.723663 -103.111009 254 8476ft 183kts
02-Jul-19 14:47 40.711763 -103.176665 254 8469ft 185kts
02-Jul-19 14:48 40.699658 -103.243271 254 8467ft 187kts
02-Jul-19 14:49 40.687446 -103.310231 254 8466ft 187kts
02-Jul-19 14:50 40.675242 -103.377050 254 8466ft 188kts
02-Jul-19 14:51 40.662960 -103.443864 254 8466ft 188kts
02-Jul-19 14:52 40.650641 -103.510757 254 8474ft 187kts
02-Jul-19 14:53 40.638331 -103.577424 254 8481ft 187kts
02-Jul-19 14:54 40.625940 -103.644142 254 8489ft 187kts
02-Jul-19 14:55 40.613498 -103.711020 253 8493ft 187kts
02-Jul-19 14:56 40.601067 -103.777535 253 8484ft 187kts
02-Jul-19 14:57 40.588573 -103.844219 253 8484ft 187kts
02-Jul-19 14:58 40.576051 -103.910774 253 8484ft 187kts
02-Jul-19 14:59 40.563443 -103.977604 253 8484ft 187kts
02-Jul-19 15:00 40.550854 -104.044115 253 8484ft 187kts
02-Jul-19 15:01 40.538202 -104.110702 253 8484ft 187kts
02-Jul-19 15:02 40.525046 -104.179666 253 8079ft 201kts
02-Jul-19 15:03 40.511310 -104.251470 253 7625ft 204kts
02-Jul-19 15:04 40.497480 -104.323487 254 7188ft 200kts
02-Jul-19 15:05 40.483897 -104.393910 254 6726ft 198kts
02-Jul-19 15:06 40.470238 -104.464540 254 6152ft 201kts
02-Jul-19 15:07 40.456492 -104.535801 254 5621ft 199kts
02-Jul-19 15:08 40.441134 -104.601017 246 5547ft 178kts
02-Jul-19 15:09 40.443562 -104.658608 277 5469ft 139kts
02-Jul-19 15:10 40.433704 -104.662428 92 4900ft 112kts
02-Jul-19 15:11 40.427900 -104.632734 108 4646ft 29kts
02-Jul-19 15:12 40.426907 -104.633647 285 4645ft 6kts
02-Jul-19 15:13 40.427293 -104.635542 282 4645ft 4kts
02-Jul-19 15:14 40.426963 -104.636992 15 4643ft 1kts

Navigation Log

Ident Type
Flight plan parsing failed, navigation log unavailable